Tuesday, May 03, 2016
12:34 UTC
  |  Log In   |  Register Free
Airport Search:

 Airport
()


FAA data valid effective Mar 31 2016 - May 26 2016 (unless otherwise noted).

 
 
 
 
 
 
 
 
 
 
 
 
 
 
Summary: Griffiss Intl (rme)

Weather Summary


METAR for KRME is not available. Closest METAR is for
KRME  (most recent observation was updatred at 31:15 UTC)
031153Z 00000KT 1/4SM FG VV002 05/05 A2993 RMK AO2 SLP137 70071 T00500050 10061 20039 55002 RVRNO

TAF for KRME is not available.
KRME
AMD 031228Z 0312/0412 00000KT 6SM BR BKN004 OVC010 FM031330 33003KT 5SM BR BKN010 FM031500 VRB04KT P6SM BKN015 FM031700 VRB04KT P6SM BKN025

KSYR  (31.5 nm NE)   (most recent observation was updatred at 31:12 UTC)
031129Z 0312/0412 30003KT 1/4SM FG VV002 FM031330 36004KT 1 1/2SM BR SCT003 FM031500 03003KT P6SM BKN018 FM031700 01003KT P6SM SCT050 FM040600 14001KT P6SM OVC025
GlobalAir.com is loading additional information.
 Current Weather at
37
Fog/Mist
West winds at 15 mph
Pressure:
Humidity:
Wind:
Dew Point:
Visibility:
rme NOAA Radar

Runway Summary

Communications Summary


Terminal Procedures Summary


Closest Alternate Airports with Instrument Procedures


Find All Airport Services Find A Hotel Find A Rental Car Find A Golf Course Find A Restaurant $100 Hamburger



FBO's on the Field
FBO Company Facility Photos Services Transportation Aviation Fuel Prices: Prices include tax
Catering Weather Repair Courtesy Rental Type 100LL JetA JetA+ MOGAS 8087
 
Add another FBO Facility Photos Catering Weather Repair Courtesy Rental Type 100LL JetA JetA+ MOGAS 8087
Services Transportation Aviation Fuel Prices: Prices include tax


model-print
model-print
model-print
model-print